Time;durP1;ratioP1;P1;durP2;ratioP2;P2;SDS_P1;SDS_P2;PMS_P1;PMS_P2;Temp;Humidity;BMP_temperature;BMP_pressure;BME280_temperature;BME280_humidity;BME280_pressure;Samples;Min_cycle;Max_cycle;Signal;HPM_P1;HPM_P2
2023/11/05 00:00:41;;;;;;;2.23;1.43;;;;;;;;;;5117054;28;20850;-61
2023/11/05 00:03:08;;;;;;;1.73;1.63;;;;;;;;;;5117028;28;20437;-60
2023/11/05 00:05:36;;;;;;;3.00;1.70;;;;;;;;;;5117250;28;20903;-60
2023/11/05 00:08:03;;;;;;;2.30;1.30;;;;;;;;;;5117143;28;20448;-60
2023/11/05 00:10:30;;;;;;;1.63;1.43;;;;;;;;;;5117067;28;20441;-60
2023/11/05 00:12:57;;;;;;;4.27;1.50;;;;;;;;;;5116868;28;20525;-60
2023/11/05 00:15:24;;;;;;;1.37;1.13;;;;;;;;;;5116792;28;20437;-60
2023/11/05 00:17:51;;;;;;;3.20;1.63;;;;;;;;;;5117027;28;20487;-60
2023/11/05 00:20:18;;;;;;;2.43;1.30;;;;;;;;;;5116681;28;20970;-61
2023/11/05 00:22:46;;;;;;;1.30;1.17;;;;;;;;;;5116910;28;20433;-60
2023/11/05 00:25:13;;;;;;;1.60;1.50;;;;;;;;;;5116777;28;20452;-60
2023/11/05 00:27:40;;;;;;;1.70;1.60;;;;;;;;;;5116985;27;20526;-60
2023/11/05 00:30:08;;;;;;;3.10;1.70;;;;;;;;;;5116633;28;21016;-60
2023/11/05 00:32:35;;;;;;;1.20;1.10;;;;;;;;;;5116813;28;20441;-60
2023/11/05 00:35:02;;;;;;;1.80;1.40;;;;;;;;;;5116715;28;20893;-60
2023/11/05 00:37:28;;;;;;;3.30;1.80;;;;;;;;;;5116556;28;20568;-60
2023/11/05 00:39:57;;;;;;;3.90;1.63;;;;;;;;;;5116531;28;20442;-60
2023/11/05 00:42:24;;;;;;;1.50;1.40;;;;;;;;;;5116435;28;20467;-60
2023/11/05 00:44:51;;;;;;;1.30;1.20;;;;;;;;;;5116395;28;20556;-60
2023/11/05 00:47:18;;;;;;;2.07;1.30;;;;;;;;;;5116595;28;20446;-60
2023/11/05 00:49:45;;;;;;;1.80;1.30;;;;;;;;;;5116136;28;20467;-60
2023/11/05 00:52:12;;;;;;;2.03;1.83;;;;;;;;;;5116288;28;20434;-60
2023/11/05 00:54:39;;;;;;;3.03;2.20;;;;;;;;;;5116172;28;20532;-60
2023/11/05 00:57:07;;;;;;;2.23;2.03;;;;;;;;;;5115887;28;20516;-60
2023/11/05 00:59:34;;;;;;;2.07;1.37;;;;;;;;;;5116250;28;20515;-60
2023/11/05 01:02:01;;;;;;;1.50;1.40;;;;;;;;;;5114665;28;20453;-60
2023/11/05 01:04:28;;;;;;;2.47;1.20;;;;;;;;;;5116115;28;20452;-60
2023/11/05 01:06:55;;;;;;;1.53;1.30;;;;;;;;;;5115933;28;20809;-60
2023/11/05 01:09:22;;;;;;;1.57;1.47;;;;;;;;;;5115863;28;20442;-60
2023/11/05 01:11:49;;;;;;;1.80;1.43;;;;;;;;;;5115689;28;20538;-60
2023/11/05 01:14:17;;;;;;;1.50;1.40;;;;;;;;;;5115907;28;20529;-61
2023/11/05 01:16:44;;;;;;;1.70;1.43;;;;;;;;;;5115790;27;20473;-60
2023/11/05 01:19:11;;;;;;;1.63;1.53;;;;;;;;;;5115744;28;20889;-60
2023/11/05 01:21:39;;;;;;;1.40;1.30;;;;;;;;;;5115589;28;20520;-60
2023/11/05 01:24:07;;;;;;;2.57;2.37;;;;;;;;;;5115518;28;20442;-61
2023/11/05 01:26:34;;;;;;;2.73;2.43;;;;;;;;;;5115678;28;20937;-60
2023/11/05 01:29:01;;;;;;;2.03;1.93;;;;;;;;;;5115828;28;20525;-60
2023/11/05 01:31:29;;;;;;;1.67;1.57;;;;;;;;;;5115495;28;20521;-60
2023/11/05 01:33:57;;;;;;;2.00;1.87;;;;;;;;;;5115458;28;20804;-60
2023/11/05 01:36:23;;;;;;;3.17;1.53;;;;;;;;;;5115293;28;20445;-60
2023/11/05 01:38:50;;;;;;;1.30;1.20;;;;;;;;;;5115038;28;20473;-60
2023/11/05 01:41:17;;;;;;;2.00;1.23;;;;;;;;;;5115413;28;20548;-61
2023/11/05 01:43:44;;;;;;;1.90;1.70;;;;;;;;;;5115318;28;20476;-60
2023/11/05 01:46:11;;;;;;;1.73;1.33;;;;;;;;;;5115289;28;20441;-60
2023/11/05 01:48:40;;;;;;;1.80;1.30;;;;;;;;;;5115090;28;20889;-60
2023/11/05 01:51:13;;;;;;;1.47;1.10;;;;;;;;;;5115058;28;20953;-60
2023/11/05 01:53:40;;;;;;;1.37;1.20;;;;;;;;;;5115202;28;20797;-61
2023/11/05 01:56:08;;;;;;;1.53;1.20;;;;;;;;;;5115028;28;20452;-61
2023/11/05 01:58:35;;;;;;;2.30;1.60;;;;;;;;;;5114932;28;20488;-60
2023/11/05 02:01:02;;;;;;;2.43;1.30;;;;;;;;;;5114952;28;20879;-60
2023/11/05 02:03:29;;;;;;;1.80;1.20;;;;;;;;;;5114790;28;20974;-60
2023/11/05 02:05:57;;;;;;;5.20;1.70;;;;;;;;;;5114601;28;20448;-60
2023/11/05 02:08:24;;;;;;;1.93;1.20;;;;;;;;;;5115412;28;20480;-60
2023/11/05 02:10:51;;;;;;;1.57;1.30;;;;;;;;;;5114575;28;20939;-60
2023/11/05 02:13:18;;;;;;;1.67;1.33;;;;;;;;;;5114592;28;20851;-60
2023/11/05 02:15:46;;;;;;;1.90;1.40;;;;;;;;;;5114557;28;20442;-60
2023/11/05 02:18:13;;;;;;;1.20;1.10;;;;;;;;;;5114230;28;20478;-60
2023/11/05 02:20:40;;;;;;;1.73;1.50;;;;;;;;;;5114617;28;20862;-60
2023/11/05 02:23:09;;;;;;;1.23;1.13;;;;;;;;;;5114494;28;20536;-60
2023/11/05 02:25:37;;;;;;;1.40;1.00;;;;;;;;;;5114531;28;20868;-60
2023/11/05 02:28:05;;;;;;;2.30;1.50;;;;;;;;;;5114422;28;20438;-60
2023/11/05 02:30:31;;;;;;;1.67;1.57;;;;;;;;;;5114243;28;20955;-60
2023/11/05 02:33:00;;;;;;;1.63;1.47;;;;;;;;;;5113960;28;20529;-60
2023/11/05 02:35:28;;;;;;;1.50;1.30;;;;;;;;;;5114374;28;20857;-60
2023/11/05 02:37:55;;;;;;;1.27;1.17;;;;;;;;;;5114297;28;20477;-60
2023/11/05 02:40:22;;;;;;;1.40;1.30;;;;;;;;;;5114195;28;20843;-60
2023/11/05 02:42:50;;;;;;;1.20;1.10;;;;;;;;;;5114084;28;20881;-60
2023/11/05 02:45:17;;;;;;;1.90;1.00;;;;;;;;;;5114000;28;20497;-60
2023/11/05 02:47:44;;;;;;;1.20;1.10;;;;;;;;;;5113827;28;20446;-60
2023/11/05 02:50:11;;;;;;;1.37;1.20;;;;;;;;;;5114133;28;20481;-60
2023/11/05 02:52:38;;;;;;;1.17;1.07;;;;;;;;;;5113797;28;20540;-60
2023/11/05 02:55:05;;;;;;;1.70;1.43;;;;;;;;;;5114100;28;20441;-60
2023/11/05 02:57:34;;;;;;;1.50;1.40;;;;;;;;;;5113764;28;20556;-60
2023/11/05 03:00:04;;;;;;;1.73;1.30;;;;;;;;;;5113654;28;20446;-60
2023/11/05 03:02:31;;;;;;;1.50;1.40;;;;;;;;;;5114015;28;20992;-60
2023/11/05 03:04:58;;;;;;;2.53;1.30;;;;;;;;;;5113801;28;20520;-60
2023/11/05 03:07:25;;;;;;;2.53;1.17;;;;;;;;;;5113756;28;20536;-60
2023/11/05 03:09:52;;;;;;;1.77;1.07;;;;;;;;;;5113632;28;20498;-60
2023/11/05 03:12:19;;;;;;;1.63;1.40;;;;;;;;;;5113614;28;20533;-60
2023/11/05 03:14:46;;;;;;;2.00;1.30;;;;;;;;;;5113625;28;20528;-60
2023/11/05 03:17:14;;;;;;;1.67;1.57;;;;;;;;;;5113620;28;20438;-60
2023/11/05 03:19:41;;;;;;;1.67;1.57;;;;;;;;;;5113654;28;20479;-60
2023/11/05 03:22:08;;;;;;;1.73;1.50;;;;;;;;;;5113576;28;20532;-60
2023/11/05 03:24:35;;;;;;;1.73;1.43;;;;;;;;;;5112690;28;20537;-60
2023/11/05 03:27:02;;;;;;;2.10;1.50;;;;;;;;;;5113325;28;20868;-60
2023/11/05 03:29:29;;;;;;;1.30;1.20;;;;;;;;;;5113696;28;20457;-60
2023/11/05 03:31:56;;;;;;;1.77;1.67;;;;;;;;;;5113640;28;20445;-60
2023/11/05 03:34:24;;;;;;;1.50;1.40;;;;;;;;;;5113475;28;20537;-60
2023/11/05 03:36:51;;;;;;;1.33;1.23;;;;;;;;;;5113428;28;20906;-60
2023/11/05 03:39:18;;;;;;;1.90;1.20;;;;;;;;;;5113318;28;20478;-60
2023/11/05 03:41:45;;;;;;;3.83;1.37;;;;;;;;;;5113207;28;20541;-60
2023/11/05 03:44:12;;;;;;;1.53;1.40;;;;;;;;;;5113379;28;21000;-60
2023/11/05 03:46:40;;;;;;;1.40;1.30;;;;;;;;;;5113290;28;20948;-60
2023/11/05 03:49:08;;;;;;;1.37;1.20;;;;;;;;;;5113360;28;20857;-60
2023/11/05 03:51:36;;;;;;;3.87;1.30;;;;;;;;;;5113264;28;20499;-60
2023/11/05 03:54:04;;;;;;;1.60;1.27;;;;;;;;;;5113091;28;20437;-60
2023/11/05 03:56:31;;;;;;;2.80;2.00;;;;;;;;;;5113394;28;20442;-60
2023/11/05 03:58:59;;;;;;;1.60;1.50;;;;;;;;;;5113224;28;20549;-60
2023/11/05 04:01:26;;;;;;;3.40;1.40;;;;;;;;;;5113264;28;20453;-60
2023/11/05 04:03:53;;;;;;;1.20;1.10;;;;;;;;;;5113143;28;20446;-60
2023/11/05 04:06:20;;;;;;;1.50;1.40;;;;;;;;;;5113039;28;20450;-60
2023/11/05 04:08:48;;;;;;;3.10;1.20;;;;;;;;;;5112938;28;20443;-60
2023/11/05 04:11:15;;;;;;;3.37;2.73;;;;;;;;;;5113248;28;20778;-60
2023/11/05 04:13:44;;;;;;;1.40;1.23;;;;;;;;;;5113100;28;20446;-60
2023/11/05 04:16:11;;;;;;;1.40;1.30;;;;;;;;;;5113096;28;20477;-60
2023/11/05 04:18:38;;;;;;;1.30;1.20;;;;;;;;;;5112937;28;20484;-60
2023/11/05 04:21:06;;;;;;;1.47;1.37;;;;;;;;;;5112888;28;20871;-61
2023/11/05 04:23:33;;;;;;;1.33;1.23;;;;;;;;;;5113116;28;20534;-60
2023/11/05 04:26:03;;;;;;;1.57;1.47;;;;;;;;;;5113182;28;20567;-60
2023/11/05 04:28:30;;;;;;;1.73;1.00;;;;;;;;;;5113054;28;20441;-60
2023/11/05 04:30:57;;;;;;;1.20;1.00;;;;;;;;;;5112943;28;20441;-60
2023/11/05 04:33:24;;;;;;;1.03;0.93;;;;;;;;;;5112883;28;20448;-60
2023/11/05 04:35:51;;;;;;;2.30;1.37;;;;;;;;;;5113034;28;20524;-60
2023/11/05 04:38:18;;;;;;;1.20;1.10;;;;;;;;;;5116525;28;20560;-60
2023/11/05 04:40:45;;;;;;;1.80;1.30;;;;;;;;;;5116569;28;20442;-60
2023/11/05 04:43:13;;;;;;;2.03;1.30;;;;;;;;;;5116495;28;20448;-60
2023/11/05 04:45:40;;;;;;;2.20;1.03;;;;;;;;;;5116169;28;20515;-60
2023/11/05 04:48:07;;;;;;;1.60;1.50;;;;;;;;;;5116304;28;20824;-60
2023/11/05 04:50:34;;;;;;;1.50;1.10;;;;;;;;;;5116108;28;20511;-60
2023/11/05 04:53:01;;;;;;;1.67;1.27;;;;;;;;;;5116412;28;20532;-61
2023/11/05 04:55:28;;;;;;;1.67;1.30;;;;;;;;;;5116177;28;20473;-61
2023/11/05 04:57:56;;;;;;;1.10;1.00;;;;;;;;;;5116336;28;20562;-60
2023/11/05 05:00:25;;;;;;;1.23;1.13;;;;;;;;;;5116262;28;20812;-61
2023/11/05 05:02:52;;;;;;;3.30;1.20;;;;;;;;;;5115904;28;20536;-60
2023/11/05 05:05:19;;;;;;;1.00;0.90;;;;;;;;;;5115924;28;20452;-60
2023/11/05 05:07:46;;;;;;;1.10;1.00;;;;;;;;;;5116031;28;20872;-60
2023/11/05 05:10:13;;;;;;;1.70;1.00;;;;;;;;;;5115908;28;20996;-61
2023/11/05 05:12:40;;;;;;;1.20;1.03;;;;;;;;;;5115842;28;20537;-60
2023/11/05 05:15:07;;;;;;;1.80;1.20;;;;;;;;;;5115775;28;20481;-60
2023/11/05 05:17:36;;;;;;;1.67;1.10;;;;;;;;;;5115615;28;20446;-60
2023/11/05 05:20:04;;;;;;;2.10;1.10;;;;;;;;;;5115725;28;20487;-60
2023/11/05 05:22:31;;;;;;;1.20;1.10;;;;;;;;;;5115752;28;20494;-60
2023/11/05 05:24:58;;;;;;;1.03;0.93;;;;;;;;;;5115474;28;20947;-60
2023/11/05 05:27:25;;;;;;;2.73;1.33;;;;;;;;;;5115520;28;20536;-60
2023/11/05 05:29:52;;;;;;;1.00;0.90;;;;;;;;;;5115349;28;20809;-60
2023/11/05 05:32:19;;;;;;;1.07;0.97;;;;;;;;;;5115661;28;20805;-60
2023/11/05 05:34:47;;;;;;;1.63;1.13;;;;;;;;;;5115566;28;20997;-60
2023/11/05 05:37:15;;;;;;;0.90;0.90;;;;;;;;;;5115590;28;20442;-60
2023/11/05 05:39:42;;;;;;;1.10;1.00;;;;;;;;;;5115185;28;21015;-60
2023/11/05 05:42:09;;;;;;;1.23;1.13;;;;;;;;;;5115269;28;20442;-60
2023/11/05 05:44:36;;;;;;;1.53;1.20;;;;;;;;;;5114917;28;20561;-60
2023/11/05 05:47:03;;;;;;;1.33;1.23;;;;;;;;;;5115232;28;20525;-60
2023/11/05 05:49:30;;;;;;;2.60;1.00;;;;;;;;;;5114310;28;20933;-60
2023/11/05 05:51:59;;;;;;;1.13;1.03;;;;;;;;;;5115133;28;20454;-60
2023/11/05 05:54:26;;;;;;;1.63;1.20;;;;;;;;;;5115007;28;20809;-61
2023/11/05 05:56:53;;;;;;;3.10;0.97;;;;;;;;;;5114910;28;20529;-61
2023/11/05 05:59:20;;;;;;;1.00;0.90;;;;;;;;;;5114649;28;20589;-61
2023/11/05 06:01:47;;;;;;;1.70;1.07;;;;;;;;;;5114917;28;20528;-60
2023/11/05 06:04:14;;;;;;;0.90;0.90;;;;;;;;;;5114907;28;20805;-60
2023/11/05 06:06:41;;;;;;;3.07;1.13;;;;;;;;;;5114824;28;20530;-60
2023/11/05 06:09:12;;;;;;;1.90;1.20;;;;;;;;;;5114764;28;20525;-61
2023/11/05 06:11:39;;;;;;;1.00;0.90;;;;;;;;;;5114596;28;20453;-60
2023/11/05 06:14:06;;;;;;;1.20;0.90;;;;;;;;;;5114843;28;20444;-60
2023/11/05 06:16:33;;;;;;;1.60;1.10;;;;;;;;;;5114682;28;20849;-60
2023/11/05 06:19:00;;;;;;;3.73;1.60;;;;;;;;;;5114521;28;20484;-60
2023/11/05 06:21:26;;;;;;;0.90;0.90;;;;;;;;;;5114468;28;20528;-60
2023/11/05 06:23:53;;;;;;;1.73;1.20;;;;;;;;;;5114699;28;20528;-60
2023/11/05 06:26:24;;;;;;;1.50;1.40;;;;;;;;;;5114281;28;20490;-60
2023/11/05 06:28:51;;;;;;;2.77;1.07;;;;;;;;;;5114491;28;20450;-60
2023/11/05 06:31:18;;;;;;;1.20;1.10;;;;;;;;;;5114425;28;21003;-60
2023/11/05 06:33:44;;;;;;;1.20;1.10;;;;;;;;;;5114270;28;20446;-60
2023/11/05 06:36:11;;;;;;;1.40;1.30;;;;;;;;;;5114201;28;20441;-60
2023/11/05 06:38:40;;;;;;;1.77;1.57;;;;;;;;;;5114055;28;20960;-60
2023/11/05 06:41:07;;;;;;;1.30;1.20;;;;;;;;;;5114229;28;20524;-60
2023/11/05 06:43:35;;;;;;;1.63;1.30;;;;;;;;;;5114070;28;20849;-60
2023/11/05 06:46:02;;;;;;;1.20;1.10;;;;;;;;;;5114123;28;20537;-60
2023/11/05 06:48:29;;;;;;;1.40;1.17;;;;;;;;;;5113979;28;20445;-60
2023/11/05 06:50:56;;;;;;;1.50;1.40;;;;;;;;;;5113943;28;21024;-60
2023/11/05 06:53:23;;;;;;;1.70;1.60;;;;;;;;;;5113719;28;20447;-60
2023/11/05 06:55:50;;;;;;;1.40;1.30;;;;;;;;;;5114084;28;20452;-60
2023/11/05 06:58:17;;;;;;;1.50;1.40;;;;;;;;;;5113664;28;20452;-60
2023/11/05 07:00:45;;;;;;;1.80;1.70;;;;;;;;;;5113780;28;20437;-60
2023/11/05 07:03:13;;;;;;;1.50;1.37;;;;;;;;;;5113823;28;20453;-60
2023/11/05 07:05:41;;;;;;;1.20;1.10;;;;;;;;;;5113623;28;20525;-60
2023/11/05 07:08:08;;;;;;;1.50;1.40;;;;;;;;;;5113820;28;20797;-60
2023/11/05 07:10:34;;;;;;;1.50;1.40;;;;;;;;;;5113797;28;20956;-60
2023/11/05 07:13:02;;;;;;;1.20;1.10;;;;;;;;;;5113724;28;20437;-60
2023/11/05 07:15:29;;;;;;;3.13;1.40;;;;;;;;;;5113639;28;20517;-60
2023/11/05 07:17:57;;;;;;;1.30;1.20;;;;;;;;;;5113511;28;20434;-60
2023/11/05 07:20:24;;;;;;;1.63;1.20;;;;;;;;;;5113295;28;20478;-60
2023/11/05 07:22:51;;;;;;;2.87;1.20;;;;;;;;;;5113663;28;20437;-60
2023/11/05 07:25:18;;;;;;;5.27;1.33;;;;;;;;;;5113579;28;20862;-60
2023/11/05 07:27:46;;;;;;;3.20;1.40;;;;;;;;;;5113482;28;20874;-60
2023/11/05 07:30:14;;;;;;;1.67;1.07;;;;;;;;;;5113480;28;20552;-60
2023/11/05 07:32:41;;;;;;;1.67;1.40;;;;;;;;;;5113298;28;20524;-60
2023/11/05 07:35:10;;;;;;;1.30;1.20;;;;;;;;;;5113323;28;20441;-60
2023/11/05 07:37:36;;;;;;;1.30;1.20;;;;;;;;;;5113516;28;20441;-60
2023/11/05 07:40:06;;;;;;;2.93;1.53;;;;;;;;;;5113360;28;20477;-60
2023/11/05 07:42:33;;;;;;;3.27;1.40;;;;;;;;;;5113330;28;20804;-60
2023/11/05 07:45:00;;;;;;;2.80;1.13;;;;;;;;;;5113329;28;20631;-60
2023/11/05 07:47:27;;;;;;;1.20;1.10;;;;;;;;;;5113117;28;20540;-60
2023/11/05 07:49:54;;;;;;;3.00;1.50;;;;;;;;;;5113452;28;20512;-60
2023/11/05 07:52:23;;;;;;;4.00;1.20;;;;;;;;;;5113131;28;20537;-60
2023/11/05 07:54:50;;;;;;;1.53;1.23;;;;;;;;;;5113464;28;20442;-61
2023/11/05 07:57:17;;;;;;;1.93;1.20;;;;;;;;;;5113143;28;20835;-60
2023/11/05 07:59:45;;;;;;;1.30;1.20;;;;;;;;;;5113266;28;20516;-60
2023/11/05 08:02:12;;;;;;;1.20;1.10;;;;;;;;;;5112996;28;20532;-60
2023/11/05 08:04:39;;;;;;;1.43;1.20;;;;;;;;;;5113355;28;20532;-60
2023/11/05 08:07:06;;;;;;;1.93;1.30;;;;;;;;;;5113197;28;20517;-60
2023/11/05 08:09:35;;;;;;;6.03;1.40;;;;;;;;;;5113003;28;20944;-60
2023/11/05 08:12:02;;;;;;;1.63;1.53;;;;;;;;;;5115306;28;20528;-60
2023/11/05 08:14:29;;;;;;;1.50;1.40;;;;;;;;;;5116819;28;20838;-60
2023/11/05 08:16:56;;;;;;;1.50;1.10;;;;;;;;;;5117095;28;20790;-60
2023/11/05 08:19:23;;;;;;;1.30;1.13;;;;;;;;;;5116882;28;20469;-60
2023/11/05 08:21:49;;;;;;;1.27;1.17;;;;;;;;;;5116880;28;20533;-60
2023/11/05 08:24:16;;;;;;;1.20;1.10;;;;;;;;;;5116819;28;20473;-60
2023/11/05 08:26:47;;;;;;;1.40;1.30;;;;;;;;;;5116716;28;20446;-60
2023/11/05 08:29:14;;;;;;;1.37;1.27;;;;;;;;;;5116548;28;20449;-60
2023/11/05 08:31:42;;;;;;;1.93;1.30;;;;;;;;;;5116515;28;20920;-60
2023/11/05 08:34:09;;;;;;;1.37;1.20;;;;;;;;;;5116534;28;20517;-61
2023/11/05 08:36:36;;;;;;;1.40;1.30;;;;;;;;;;5116726;28;20534;-61
2023/11/05 08:39:03;;;;;;;1.63;1.53;;;;;;;;;;5116310;28;20505;-61
2023/11/05 08:41:30;;;;;;;1.20;1.00;;;;;;;;;;5116373;28;20486;-61
2023/11/05 08:43:59;;;;;;;1.33;1.23;;;;;;;;;;5116176;28;20469;-61
2023/11/05 08:46:26;;;;;;;2.57;1.33;;;;;;;;;;5116486;28;20599;-61
2023/11/05 08:48:53;;;;;;;2.80;1.17;;;;;;;;;;5116376;28;20445;-61
2023/11/05 08:51:26;;;;;;;1.10;1.00;;;;;;;;;;5116304;28;20442;-61
2023/11/05 08:53:53;;;;;;;1.47;1.37;;;;;;;;;;5116640;28;20484;-61
2023/11/05 08:56:20;;;;;;;1.77;1.20;;;;;;;;;;5115926;28;20797;-61
2023/11/05 08:58:49;;;;;;;1.07;0.97;;;;;;;;;;5116291;28;20496;-61
2023/11/05 09:01:17;;;;;;;1.43;1.10;;;;;;;;;;5116128;28;20847;-61
2023/11/05 09:03:44;;;;;;;1.60;1.50;;;;;;;;;;5115862;28;20446;-61
2023/11/05 09:06:11;;;;;;;3.57;1.37;;;;;;;;;;5116017;28;20495;-61
2023/11/05 09:08:39;;;;;;;1.30;1.20;;;;;;;;;;5115983;28;20446;-62
2023/11/05 09:11:07;;;;;;;2.40;1.27;;;;;;;;;;5115878;28;20441;-59
2023/11/05 09:13:34;;;;;;;1.37;1.27;;;;;;;;;;5115872;28;20484;-60
2023/11/05 09:16:01;;;;;;;1.20;1.10;;;;;;;;;;5115825;28;20534;-59
2023/11/05 09:18:29;;;;;;;2.67;1.07;;;;;;;;;;5115701;28;20452;-59
2023/11/05 09:20:56;;;;;;;1.10;0.93;;;;;;;;;;5115524;28;20485;-59
2023/11/05 09:23:24;;;;;;;1.77;1.47;;;;;;;;;;5114112;28;21039;-59
2023/11/05 09:25:51;;;;;;;1.40;1.30;;;;;;;;;;5115438;28;20449;-59
2023/11/05 09:28:18;;;;;;;1.97;1.40;;;;;;;;;;5115537;28;20477;-59
2023/11/05 09:30:45;;;;;;;1.33;1.20;;;;;;;;;;5115419;28;20437;-59
2023/11/05 09:33:12;;;;;;;2.23;1.30;;;;;;;;;;5115444;28;20950;-59
2023/11/05 09:35:40;;;;;;;1.60;1.50;;;;;;;;;;5115366;28;20441;-59
2023/11/05 09:38:07;;;;;;;1.47;1.10;;;;;;;;;;5115017;28;20445;-59
2023/11/05 09:40:34;;;;;;;1.13;1.03;;;;;;;;;;5115094;28;20542;-59
2023/11/05 09:43:03;;;;;;;1.30;1.20;;;;;;;;;;5115285;28;20525;-60
2023/11/05 09:45:33;;;;;;;2.10;1.33;;;;;;;;;;5114996;28;20476;-59
2023/11/05 09:48:01;;;;;;;3.23;1.57;;;;;;;;;;5115117;28;20790;-59
2023/11/05 09:50:28;;;;;;;1.73;1.20;;;;;;;;;;5115029;28;20442;-60
2023/11/05 09:53:05;;;;;;;2.03;1.40;;;;;;;;;;5115437;28;20535;-59
2023/11/05 09:55:32;;;;;;;2.50;1.20;;;;;;;;;;5114873;28;20958;-59
2023/11/05 09:58:00;;;;;;;1.47;1.20;;;;;;;;;;5114961;28;20459;-59
2023/11/05 10:00:26;;;;;;;1.40;1.27;;;;;;;;;;5114729;28;21006;-59
2023/11/05 10:02:55;;;;;;;1.30;1.20;;;;;;;;;;5114708;28;20449;-60
2023/11/05 10:05:22;;;;;;;1.50;1.17;;;;;;;;;;5114906;28;20522;-59
2023/11/05 10:07:50;;;;;;;1.20;0.87;;;;;;;;;;5114604;28;20525;-59
2023/11/05 10:10:19;;;;;;;1.37;1.03;;;;;;;;;;5114681;28;20449;-59
2023/11/05 10:12:46;;;;;;;2.53;1.30;;;;;;;;;;5114541;28;20480;-59
2023/11/05 10:15:12;;;;;;;1.87;0.90;;;;;;;;;;5114624;28;20442;-59
2023/11/05 10:17:39;;;;;;;2.30;1.17;;;;;;;;;;5114632;28;20576;-59
2023/11/05 10:20:07;;;;;;;2.17;1.20;;;;;;;;;;5114453;28;20505;-59
2023/11/05 10:22:34;;;;;;;2.50;1.50;;;;;;;;;;5114227;28;20921;-59
2023/11/05 10:25:06;;;;;;;2.07;1.30;;;;;;;;;;5114433;28;20990;-59
2023/11/05 10:27:35;;;;;;;1.87;1.10;;;;;;;;;;5114287;28;20446;-59
2023/11/05 10:30:03;;;;;;;1.30;1.03;;;;;;;;;;5114257;28;20452;-59
2023/11/05 10:32:32;;;;;;;5.17;1.17;;;;;;;;;;5114428;28;20446;-59
2023/11/05 10:34:59;;;;;;;2.40;1.13;;;;;;;;;;5113872;28;20801;-59
2023/11/05 10:37:26;;;;;;;1.60;1.50;;;;;;;;;;5114232;28;20473;-60
2023/11/05 10:39:53;;;;;;;1.80;1.33;;;;;;;;;;5113942;28;20469;-60
2023/11/05 10:42:20;;;;;;;2.30;1.20;;;;;;;;;;5113933;28;20452;-60
2023/11/05 10:44:49;;;;;;;2.20;1.60;;;;;;;;;;5113722;28;20562;-59
2023/11/05 10:47:17;;;;;;;1.03;0.93;;;;;;;;;;5114162;28;20446;-59
2023/11/05 10:49:44;;;;;;;1.20;1.10;;;;;;;;;;5114088;28;20481;-59
2023/11/05 10:52:13;;;;;;;1.83;1.10;;;;;;;;;;5113946;28;20452;-60
2023/11/05 10:54:40;;;;;;;2.70;1.10;;;;;;;;;;5113840;28;20442;-60
2023/11/05 10:57:22;;;;;;;1.20;1.10;;;;;;;;;;5113658;28;20540;-59
2023/11/05 10:59:50;;;;;;;2.07;1.27;;;;;;;;;;5113796;28;20473;-62
2023/11/05 11:02:17;;;;;;;1.77;1.60;;;;;;;;;;5113740;28;20442;-60
2023/11/05 11:04:44;;;;;;;3.40;1.23;;;;;;;;;;5113714;28;20447;-60
2023/11/05 11:07:14;;;;;;;4.43;1.50;;;;;;;;;;5113643;28;20537;-61
2023/11/05 11:09:42;;;;;;;1.57;1.30;;;;;;;;;;5113597;28;20441;-60
2023/11/05 11:12:24;;;;;;;1.37;1.00;;;;;;;;;;5114065;28;20801;-60
2023/11/05 11:14:54;;;;;;;2.43;1.20;;;;;;;;;;5113545;28;20531;-61
2023/11/05 11:17:21;;;;;;;2.70;1.10;;;;;;;;;;5113962;28;20532;-60
2023/11/05 11:19:49;;;;;;;1.33;1.23;;;;;;;;;;5113374;28;20446;-60
2023/11/05 11:22:16;;;;;;;1.20;1.10;;;;;;;;;;5113417;28;20518;-61
2023/11/05 11:24:43;;;;;;;3.63;1.20;;;;;;;;;;5113589;28;20449;-60
2023/11/05 11:27:14;;;;;;;4.23;1.97;;;;;;;;;;5113748;28;20438;-60
2023/11/05 11:29:42;;;;;;;1.20;1.10;;;;;;;;;;5113473;28;20442;-60
2023/11/05 11:32:11;;;;;;;1.67;1.13;;;;;;;;;;5113299;28;20437;-60
2023/11/05 11:34:38;;;;;;;0.90;0.90;;;;;;;;;;5113227;28;20437;-60
2023/11/05 11:37:06;;;;;;;1.50;1.40;;;;;;;;;;5113548;28;20742;-60
2023/11/05 11:39:34;;;;;;;2.10;1.20;;;;;;;;;;5113420;28;20855;-60
2023/11/05 11:42:01;;;;;;;2.80;1.30;;;;;;;;;;5113356;28;20481;-60
2023/11/05 11:44:28;;;;;;;1.13;1.00;;;;;;;;;;5113168;28;21067;-60
2023/11/05 11:46:56;;;;;;;2.40;1.20;;;;;;;;;;5115432;28;20441;-61
2023/11/05 11:49:28;;;;;;;2.23;1.13;;;;;;;;;;5117414;28;20438;-60
2023/11/05 11:51:55;;;;;;;1.40;1.30;;;;;;;;;;5117297;28;20442;-61
2023/11/05 11:54:25;;;;;;;1.20;0.90;;;;;;;;;;5117477;28;20473;-60
2023/11/05 11:56:52;;;;;;;1.37;0.90;;;;;;;;;;5117347;28;20796;-60
2023/11/05 11:59:23;;;;;;;1.20;1.10;;;;;;;;;;5117202;28;20447;-61
2023/11/05 12:01:50;;;;;;;1.27;1.07;;;;;;;;;;5117095;28;20512;-60
2023/11/05 12:04:17;;;;;;;1.63;1.10;;;;;;;;;;5117386;27;20803;-60
2023/11/05 12:06:47;;;;;;;1.10;1.00;;;;;;;;;;5117195;28;20448;-62
2023/11/05 12:09:20;;;;;;;1.20;1.10;;;;;;;;;;5117103;28;20477;-61
2023/11/05 12:11:48;;;;;;;3.40;3.10;;;;;;;;;;5117072;28;20473;-60
2023/11/05 12:14:15;;;;;;;1.10;1.00;;;;;;;;;;5116853;28;20441;-60
2023/11/05 12:16:42;;;;;;;1.47;1.00;;;;;;;;;;5117017;28;20449;-60
2023/11/05 12:19:10;;;;;;;1.17;1.07;;;;;;;;;;5116857;28;20789;-60
2023/11/05 12:21:38;;;;;;;3.97;1.27;;;;;;;;;;5116713;28;20488;-59
2023/11/05 12:24:07;;;;;;;1.67;1.10;;;;;;;;;;5116756;28;20461;-59
2023/11/05 12:26:34;;;;;;;2.20;1.20;;;;;;;;;;5116582;28;20447;-60
2023/11/05 12:29:01;;;;;;;2.10;1.07;;;;;;;;;;5116918;28;20880;-60
2023/11/05 12:31:28;;;;;;;3.10;1.30;;;;;;;;;;5116663;28;20528;-60
2023/11/05 12:33:56;;;;;;;1.57;0.80;;;;;;;;;;5116626;28;20449;-60
2023/11/05 12:36:23;;;;;;;2.10;1.17;;;;;;;;;;5116638;28;20441;-59
2023/11/05 12:38:50;;;;;;;1.10;1.00;;;;;;;;;;5116365;28;20524;-60
2023/11/05 12:41:18;;;;;;;1.37;1.20;;;;;;;;;;5116132;28;20477;-60
2023/11/05 12:43:45;;;;;;;1.90;0.90;;;;;;;;;;5116317;28;20472;-60
2023/11/05 12:46:12;;;;;;;1.63;1.23;;;;;;;;;;5116659;28;20448;-60
2023/11/05 12:48:39;;;;;;;4.47;1.47;;;;;;;;;;5116312;28;20438;-60
2023/11/05 12:51:06;;;;;;;0.97;0.80;;;;;;;;;;5116231;28;20444;-60
2023/11/05 12:53:34;;;;;;;1.20;1.00;;;;;;;;;;5116149;28;20524;-60
2023/11/05 12:56:04;;;;;;;1.20;1.10;;;;;;;;;;5115820;28;20443;-60
2023/11/05 12:58:32;;;;;;;2.40;1.10;;;;;;;;;;5116179;28;20203;-60
2023/11/05 13:01:00;;;;;;;1.60;0.90;;;;;;;;;;5115975;28;20476;-60
2023/11/05 13:03:27;;;;;;;1.67;1.17;;;;;;;;;;5116069;28;21020;-60
2023/11/05 13:05:54;;;;;;;3.87;0.90;;;;;;;;;;5115957;28;20448;-60
2023/11/05 13:08:21;;;;;;;1.20;1.10;;;;;;;;;;5115724;28;20437;-60
2023/11/05 13:10:48;;;;;;;1.37;1.00;;;;;;;;;;5115901;28;20445;-60
2023/11/05 13:13:16;;;;;;;2.30;1.10;;;;;;;;;;5115857;28;20438;-60
2023/11/05 13:15:44;;;;;;;1.47;1.20;;;;;;;;;;5115609;28;20799;-60
2023/11/05 13:18:11;;;;;;;3.67;1.10;;;;;;;;;;5115630;28;20441;-60
2023/11/05 13:20:38;;;;;;;1.60;1.10;;;;;;;;;;5115530;28;20825;-60
2023/11/05 13:23:05;;;;;;;0.93;0.87;;;;;;;;;;5115497;28;20524;-60
2023/11/05 13:25:33;;;;;;;1.20;1.10;;;;;;;;;;5115700;28;20870;-60
2023/11/05 13:28:00;;;;;;;1.57;1.10;;;;;;;;;;5115526;28;20940;-60
2023/11/05 13:30:29;;;;;;;2.90;1.03;;;;;;;;;;5115475;28;20852;-60
2023/11/05 13:32:57;;;;;;;1.87;0.90;;;;;;;;;;5115450;28;20524;-60
2023/11/05 13:35:25;;;;;;;1.13;1.00;;;;;;;;;;5115454;28;20442;-60
2023/11/05 13:37:52;;;;;;;1.23;1.10;;;;;;;;;;5115420;28;20521;-60
2023/11/05 13:40:19;;;;;;;2.83;0.90;;;;;;;;;;5115315;28;20869;-60
2023/11/05 13:42:46;;;;;;;1.77;1.00;;;;;;;;;;5115266;28;20445;-60
2023/11/05 13:45:14;;;;;;;1.00;0.87;;;;;;;;;;5115004;28;21062;-60
2023/11/05 13:47:40;;;;;;;2.23;1.27;;;;;;;;;;5115085;28;20442;-59
2023/11/05 13:50:11;;;;;;;1.00;0.90;;;;;;;;;;5114918;28;20533;-59
2023/11/05 13:52:38;;;;;;;0.90;0.80;;;;;;;;;;5115139;28;20446;-60
2023/11/05 13:55:07;;;;;;;2.70;1.00;;;;;;;;;;5115105;28;20451;-60
2023/11/05 13:57:34;;;;;;;1.43;0.90;;;;;;;;;;5114965;28;20502;-60
2023/11/05 14:00:00;;;;;;;2.17;1.20;;;;;;;;;;5114875;28;20536;-60
2023/11/05 14:02:27;;;;;;;2.53;1.10;;;;;;;;;;5114719;28;20808;-60
2023/11/05 14:04:54;;;;;;;2.07;1.10;;;;;;;;;;5114955;28;20528;-60
2023/11/05 14:07:23;;;;;;;4.70;1.17;;;;;;;;;;5114799;28;20446;-60
2023/11/05 14:09:50;;;;;;;2.37;1.10;;;;;;;;;;5114041;28;21000;-59
2023/11/05 14:12:17;;;;;;;1.50;0.90;;;;;;;;;;5114590;28;20441;-59
2023/11/05 14:14:45;;;;;;;4.27;0.90;;;;;;;;;;5114337;28;20442;-60
2023/11/05 14:17:12;;;;;;;5.50;1.00;;;;;;;;;;5114439;28;20649;-60
2023/11/05 14:19:39;;;;;;;1.37;1.00;;;;;;;;;;5114784;28;20528;-60
2023/11/05 14:22:06;;;;;;;1.70;1.03;;;;;;;;;;5114488;28;20588;-61
2023/11/05 14:24:34;;;;;;;2.10;1.00;;;;;;;;;;5114429;28;20450;-60
2023/11/05 14:27:01;;;;;;;1.03;0.93;;;;;;;;;;5114400;28;20489;-59
2023/11/05 14:29:28;;;;;;;2.07;0.93;;;;;;;;;;5114223;28;20883;-60
2023/11/05 14:31:55;;;;;;;1.90;0.90;;;;;;;;;;5114457;28;20520;-60
2023/11/05 14:34:22;;;;;;;2.20;1.20;;;;;;;;;;5113899;28;21017;-59
2023/11/05 14:36:50;;;;;;;1.53;1.43;;;;;;;;;;5114274;28;20525;-60
2023/11/05 14:39:20;;;;;;;1.80;1.30;;;;;;;;;;5114114;28;20809;-59
2023/11/05 14:41:50;;;;;;;1.00;0.90;;;;;;;;;;5113909;28;20475;-59
2023/11/05 14:44:17;;;;;;;2.67;1.20;;;;;;;;;;5113835;28;20867;-59